Time;durP1;ratioP1;P1;durP2;ratioP2;P2;SDS_P1;SDS_P2;PMS_P1;PMS_P2;Temp;Humidity;BMP_temperature;BMP_pressure;BME280_temperature;BME280_humidity;BME280_pressure;Samples;Min_cycle;Max_cycle;Signal;HPM_P1;HPM_P2
2022/06/20 00:00:01;;;;;;;3.55;1.45;;;;;;;23.08;44.72;100050.78;1733250;82;21192;-58
2022/06/20 00:02:31;;;;;;;2.77;1.22;;;;;;;23.03;44.81;100053.05;1743903;81;21161;-58
2022/06/20 00:05:03;;;;;;;2.08;1.57;;;;;;;23.02;44.89;100056.12;1743688;82;21565;-58
2022/06/20 00:07:32;;;;;;;5.47;1.70;;;;;;;22.98;44.93;100055.86;1743990;82;21171;-59
2022/06/20 00:10:03;;;;;;;4.00;1.60;;;;;;;22.94;45.03;100054.77;1743723;82;21587;-58
2022/06/20 00:12:31;;;;;;;3.45;1.80;;;;;;;22.86;45.12;100060.13;1743664;81;21173;-59
2022/06/20 00:15:03;;;;;;;5.20;1.25;;;;;;;22.77;45.29;100052.31;1743795;82;21102;-57
2022/06/20 00:17:31;;;;;;;3.47;1.65;;;;;;;22.72;45.45;100059.85;1733709;82;21185;-58
2022/06/20 00:20:00;;;;;;;3.08;1.50;;;;;;;22.69;45.48;100054.28;1744110;81;21129;-58
2022/06/20 00:22:31;;;;;;;4.28;1.60;;;;;;;22.65;45.61;100060.16;1744032;81;21145;-57
2022/06/20 00:25:00;;;;;;;2.25;1.30;;;;;;;22.62;45.68;100057.10;1744101;82;21180;-57
2022/06/20 00:27:29;;;;;;;2.55;1.60;;;;;;;22.59;45.76;100060.47;1743922;81;21593;-58
2022/06/20 00:29:59;;;;;;;6.20;1.70;;;;;;;22.56;45.81;100061.04;1744255;82;21125;-59
2022/06/20 00:32:28;;;;;;;2.72;1.40;;;;;;;22.50;45.91;100055.20;1744160;82;21545;-58
2022/06/20 00:34:57;;;;;;;2.50;1.60;;;;;;;22.44;45.99;100063.59;1743997;81;21565;-58
2022/06/20 00:37:26;;;;;;;3.52;1.45;;;;;;;22.39;46.11;100060.82;1743856;82;21152;-60
2022/06/20 00:39:55;;;;;;;3.17;1.40;;;;;;;22.31;46.18;100055.82;1756738;82;21088;-57
2022/06/20 00:42:24;;;;;;;4.05;1.70;;;;;;;22.26;46.30;100048.86;1757117;80;21092;-59
2022/06/20 00:44:56;;;;;;;3.87;1.65;;;;;;;22.22;46.38;100054.73;1738072;82;21572;-58
2022/06/20 00:47:30;;;;;;;3.77;1.60;;;;;;;22.19;46.40;100052.51;1756899;80;21156;-58
2022/06/20 00:50:23;;;;;;;3.25;1.70;;;;;;;22.17;46.41;100047.77;1756795;82;21183;-59
2022/06/20 00:52:59;;;;;;;3.35;1.80;;;;;;;22.13;46.50;100043.31;1756844;82;21118;-58
2022/06/20 00:55:40;;;;;;;5.03;1.75;;;;;;;22.08;46.60;100043.84;1756966;82;21553;-59
2022/06/20 00:58:35;;;;;;;3.12;1.70;;;;;;;22.03;46.60;100042.47;1756930;82;21514;-58
2022/06/20 01:01:06;;;;;;;3.37;1.70;;;;;;;21.99;46.69;100044.11;1757199;80;21144;-58
2022/06/20 01:03:35;;;;;;;3.58;1.65;;;;;;;21.95;46.72;100039.66;1737949;81;21592;-57
2022/06/20 01:06:10;;;;;;;3.83;1.70;;;;;;;21.95;46.69;100048.59;1757038;82;21565;-57
2022/06/20 01:08:43;;;;;;;6.53;1.52;;;;;;;21.91;46.70;100042.73;1756703;80;21113;-59
2022/06/20 01:11:18;;;;;;;2.75;1.80;;;;;;;21.87;46.70;100036.60;1757111;80;21572;-58
2022/06/20 01:13:47;;;;;;;3.80;1.57;;;;;;;21.84;46.73;100044.41;1756912;81;21180;-60
2022/06/20 01:16:30;;;;;;;3.77;1.45;;;;;;;21.84;46.77;100036.05;1756899;82;21151;-58
2022/06/20 01:19:01;;;;;;;2.30;1.50;;;;;;;21.86;46.68;100029.36;1756916;82;21560;-59
2022/06/20 01:21:32;;;;;;;3.20;1.62;;;;;;;21.88;46.62;100022.94;1756691;82;21108;-58
2022/06/20 01:24:23;;;;;;;5.22;1.65;;;;;;;21.86;46.47;100019.59;1756841;80;21599;-58
2022/06/20 01:27:22;;;;;;;4.90;1.60;;;;;;;21.86;46.50;100026.00;1756824;80;21116;-59
2022/06/20 01:29:51;;;;;;;2.30;1.55;;;;;;;21.87;46.44;100021.27;1756962;80;21121;-59
2022/06/20 01:32:20;;;;;;;2.75;1.70;;;;;;;21.84;46.41;100020.70;1757111;82;21160;-57
2022/06/20 01:34:51;;;;;;;5.85;1.60;;;;;;;21.81;46.51;100022.67;1756983;80;21517;-58
2022/06/20 01:37:26;;;;;;;2.85;1.50;;;;;;;21.80;46.49;100020.99;1756666;82;21152;-58
2022/06/20 01:40:00;;;;;;;2.67;1.60;;;;;;;21.76;46.50;100017.09;1752466;80;21136;-57
2022/06/20 01:42:29;;;;;;;3.92;1.57;;;;;;;21.73;46.53;100021.00;1752070;81;21588;-58
2022/06/20 01:48:02;;;;;;;4.67;1.70;;;;;;;21.67;46.57;100023.52;1751764;82;21553;-58
2022/06/20 01:50:32;;;;;;;2.52;1.80;;;;;;;21.62;46.70;100023.52;1751878;82;21168;-59
2022/06/20 01:53:03;;;;;;;5.58;2.12;;;;;;;21.60;46.67;100023.80;1751977;80;21133;-58
2022/06/20 01:55:32;;;;;;;3.45;1.60;;;;;;;21.57;46.70;100022.13;1751789;80;21582;-59
2022/06/20 01:58:08;;;;;;;1.80;1.30;;;;;;;21.55;46.79;100017.39;1751890;82;21097;-58
2022/06/20 02:00:37;;;;;;;2.15;1.60;;;;;;;21.54;46.74;100019.91;1752185;81;21577;-57
2022/06/20 02:03:10;;;;;;;1.62;1.42;;;;;;;21.49;46.70;100022.97;1751943;80;22003;-58
2022/06/20 02:05:39;;;;;;;6.65;1.80;;;;;;;21.43;46.81;100021.83;1751797;82;21630;-59
2022/06/20 02:08:08;;;;;;;3.05;1.70;;;;;;;21.40;46.84;100023.77;1751721;80;21176;-57
2022/06/20 02:10:42;;;;;;;3.58;1.67;;;;;;;21.38;46.83;100019.87;1751775;82;21585;-58
2022/06/20 02:13:13;;;;;;;3.70;2.08;;;;;;;21.37;46.82;100029.35;1751972;80;21125;-59
2022/06/20 02:15:44;;;;;;;2.60;1.70;;;;;;;21.37;46.81;100022.94;1751958;82;21101;-60
2022/06/20 02:18:14;;;;;;;3.52;1.92;;;;;;;21.34;46.83;100028.52;1752290;80;21184;-58
2022/06/20 02:20:49;;;;;;;4.53;1.77;;;;;;;21.31;46.82;100031.02;1751775;80;21545;-58
2022/06/20 02:23:21;;;;;;;4.28;1.75;;;;;;;21.29;46.91;100028.51;1751715;80;21117;-59
2022/06/20 02:25:51;;;;;;;2.40;1.70;;;;;;;21.27;46.89;100034.92;1751650;82;21120;-60
2022/06/20 02:28:31;;;;;;;3.33;1.80;;;;;;;21.26;46.92;100036.59;1751945;80;21148;-58
2022/06/20 02:31:01;;;;;;;2.58;1.70;;;;;;;21.24;46.98;100035.47;1751858;80;21541;-58
2022/06/20 02:33:32;;;;;;;5.10;1.92;;;;;;;21.19;47.06;100047.41;1751824;82;21096;-57
2022/06/20 02:36:04;;;;;;;2.90;1.70;;;;;;;21.17;47.14;100051.59;1751731;81;21164;-58
2022/06/20 02:38:33;;;;;;;3.95;1.80;;;;;;;21.17;47.12;100046.86;1751671;81;21129;-58
2022/06/20 02:41:03;;;;;;;5.35;1.80;;;;;;;21.19;47.08;100052.98;1751754;82;21144;-58
2022/06/20 02:43:45;;;;;;;4.12;1.75;;;;;;;21.17;47.12;100059.95;1751619;80;21140;-59
2022/06/20 02:46:18;;;;;;;5.80;1.77;;;;;;;21.13;47.14;100054.65;1751723;81;21148;-57
2022/06/20 02:48:49;;;;;;;5.75;2.33;;;;;;;21.12;47.17;100055.77;1751625;82;21628;-58
2022/06/20 02:51:25;;;;;;;4.00;1.87;;;;;;;21.11;47.16;100060.50;1751988;82;21128;-59
2022/06/20 02:53:58;;;;;;;4.65;2.20;;;;;;;21.12;47.17;100061.34;1751983;82;21120;-59
2022/06/20 02:56:30;;;;;;;2.47;1.98;;;;;;;21.15;47.13;100065.80;1751696;82;21569;-58
2022/06/20 02:59:05;;;;;;;5.45;2.50;;;;;;;21.17;47.00;100066.36;1751913;80;21129;-59
2022/06/20 03:01:42;;;;;;;4.87;2.40;;;;;;;21.18;46.94;100071.37;1752075;82;21565;-59
2022/06/20 03:04:12;;;;;;;6.35;2.27;;;;;;;21.20;46.91;100073.33;1751933;80;21572;-60
2022/06/20 03:06:47;;;;;;;3.20;2.00;;;;;;;21.21;46.89;100071.66;1751762;82;21161;-58
2022/06/20 03:09:18;;;;;;;6.55;2.10;;;;;;;21.25;46.77;100072.53;1751830;81;21530;-58
2022/06/20 03:11:47;;;;;;;4.40;2.08;;;;;;;21.26;46.79;100065.29;1751744;80;21141;-59
2022/06/20 03:14:17;;;;;;;3.70;2.20;;;;;;;21.29;47.27;100073.66;1751726;80;21610;-59
2022/06/20 03:16:46;;;;;;;3.55;2.15;;;;;;;21.30;47.01;100080.34;1751885;81;21117;-59
2022/06/20 03:19:22;;;;;;;6.65;2.25;;;;;;;21.32;46.82;100074.50;1751773;80;21121;-58
2022/06/20 03:21:52;;;;;;;5.53;2.40;;;;;;;21.35;46.78;100073.39;1751841;82;21586;-59
2022/06/20 03:24:21;;;;;;;5.35;2.40;;;;;;;21.38;46.55;100070.60;1751691;82;21228;-59
2022/06/20 03:26:51;;;;;;;6.70;2.62;;;;;;;21.39;46.51;100080.64;1751795;82;21544;-58
2022/06/20 03:29:20;;;;;;;5.80;2.42;;;;;;;21.42;46.59;100086.49;1751855;80;21591;-59
2022/06/20 03:31:49;;;;;;;4.40;2.35;;;;;;;21.45;46.62;100079.53;1751686;80;21156;-58
2022/06/20 03:34:18;;;;;;;4.05;2.60;;;;;;;21.48;46.52;100078.45;1732871;82;21176;-58
2022/06/20 03:36:50;;;;;;;4.45;2.72;;;;;;;21.54;46.73;100075.66;1751505;80;21599;-59
2022/06/20 03:39:18;;;;;;;6.87;2.52;;;;;;;21.57;46.68;100073.16;1748941;81;21585;-58
2022/06/20 03:41:48;;;;;;;6.47;3.00;;;;;;;21.59;46.35;100077.06;1743879;82;21596;-59
2022/06/20 03:44:43;;;;;;;3.58;2.37;;;;;;;21.64;46.10;100084.87;1743791;82;21608;-59
2022/06/20 03:47:33;;;;;;;3.52;2.22;;;;;;;21.70;46.04;100078.73;1743681;81;21571;-58
2022/06/20 03:50:07;;;;;;;5.78;2.37;;;;;;;21.74;46.05;100072.88;1743747;81;21125;-58
2022/06/20 03:52:46;;;;;;;6.12;2.50;;;;;;;21.78;46.12;100066.45;1742430;81;21121;-59
2022/06/20 03:55:25;;;;;;;5.47;2.80;;;;;;;21.83;46.26;100059.48;1743983;81;21537;-59
2022/06/20 03:58:09;;;;;;;4.67;2.30;;;;;;;21.86;46.16;100054.45;1743995;81;21141;-58
2022/06/20 04:01:13;;;;;;;5.37;2.60;;;;;;;21.86;46.38;100046.09;1743982;82;21125;-57
2022/06/20 04:04:02;;;;;;;5.95;3.10;;;;;;;21.85;46.42;100043.86;1743849;81;21595;-59
2022/06/20 04:06:36;;;;;;;4.20;3.00;;;;;;;21.84;46.44;100043.02;1743930;81;21176;-59
2022/06/20 04:12:10;;;;;;;4.83;2.20;;;;;;;21.87;46.46;100024.05;1743759;81;21109;-59
2022/06/20 04:14:55;;;;;;;5.17;2.67;;;;;;;21.89;46.30;100026.00;1743670;81;21515;-58
2022/06/20 04:20:54;;;;;;;6.15;2.60;;;;;;;21.97;46.21;100012.88;1740756;82;21646;-58
2022/06/20 04:23:34;;;;;;;6.95;2.50;;;;;;;22.03;45.95;100003.41;1743856;81;21451;-57
2022/06/20 04:26:20;;;;;;;7.20;2.52;;;;;;;22.09;45.72;100002.27;1715209;81;21576;-59
2022/06/20 04:29:14;;;;;;;4.28;2.45;;;;;;;22.16;45.46;100006.19;1743860;81;21116;-59
2022/06/20 04:32:10;;;;;;;8.93;2.70;;;;;;;22.22;45.34;100001.70;1743836;81;21564;-58
2022/06/20 04:34:47;;;;;;;4.35;2.30;;;;;;;22.30;45.23;99997.48;1743807;81;21631;-59
2022/06/20 04:37:41;;;;;;;3.30;2.20;;;;;;;22.40;45.10;99995.48;1743846;81;21643;-57
2022/06/20 04:40:23;;;;;;;5.10;2.22;;;;;;;22.49;44.75;99991.54;1748189;80;21606;-58
2022/06/20 04:43:09;;;;;;;5.72;2.20;;;;;;;22.58;44.30;99977.81;1751659;82;21583;-58
2022/06/20 04:45:55;;;;;;;3.47;2.02;;;;;;;22.65;44.05;99979.73;1751735;80;21180;-59
2022/06/20 04:48:25;;;;;;;4.70;2.10;;;;;;;22.73;44.00;99976.33;1752185;82;22109;-57
2022/06/20 04:50:57;;;;;;;7.75;2.58;;;;;;;22.83;43.91;99965.16;1751945;80;21144;-58
2022/06/20 04:53:33;;;;;;;4.75;2.30;;;;;;;22.92;43.71;99963.41;1751809;82;21128;-58
2022/06/20 04:56:05;;;;;;;4.60;2.00;;;;;;;23.02;43.54;99957.75;1751762;81;21152;-57
2022/06/20 04:58:49;;;;;;;4.42;2.17;;;;;;;23.20;43.28;99959.58;1751820;80;21618;-58
2022/06/20 05:01:18;;;;;;;2.75;1.90;;;;;;;23.38;42.77;99961.09;1699754;84;21114;-58
2022/06/20 05:03:55;;;;;;;7.67;3.87;;;;;;;23.65;42.32;99957.82;1699534;84;21158;-60
2022/06/20 05:06:27;;;;;;;3.25;1.92;;;;;;;23.93;41.84;99958.92;1699562;84;21182;-58
2022/06/20 05:09:04;;;;;;;3.85;2.10;;;;;;;24.20;41.53;99957.52;1699391;83;21608;-58
2022/06/20 05:11:51;;;;;;;8.10;2.00;;;;;;;24.43;40.84;99954.45;1699627;83;21094;-59
2022/06/20 05:14:38;;;;;;;6.90;2.35;;;;;;;24.63;40.45;99956.41;1694640;84;21521;-58
2022/06/20 05:17:12;;;;;;;3.55;2.30;;;;;;;24.84;40.15;99961.19;1699328;83;21239;-57
2022/06/20 05:19:47;;;;;;;4.75;2.17;;;;;;;25.11;39.77;99961.09;1710120;82;21152;-58
2022/06/20 05:22:23;;;;;;;2.62;2.10;;;;;;;25.35;39.65;99960.97;1751731;80;21160;-58
2022/06/20 05:24:55;;;;;;;8.25;2.87;;;;;;;25.64;39.13;99963.58;1751883;81;21124;-59
2022/06/20 05:27:46;;;;;;;3.62;2.10;;;;;;;25.94;38.58;99968.64;1751958;80;21513;-58
2022/06/20 05:30:22;;;;;;;4.05;2.00;;;;;;;26.16;38.06;99973.01;1751949;82;21089;-58
2022/06/20 05:33:31;;;;;;;3.92;2.08;;;;;;;26.47;37.67;99969.02;1751814;82;21097;-58
2022/06/20 05:36:05;;;;;;;6.95;2.20;;;;;;;26.72;36.73;99969.05;1751370;80;21148;-57
2022/06/20 05:38:39;;;;;;;4.35;1.75;;;;;;;26.96;36.62;99961.75;1751911;82;21113;-59
2022/06/20 05:41:12;;;;;;;5.87;2.20;;;;;;;27.21;35.98;99969.35;1735318;82;21192;-59
2022/06/20 05:43:42;;;;;;;5.87;2.10;;;;;;;27.39;35.51;99957.94;1753758;80;21612;-60
2022/06/20 05:46:31;;;;;;;4.17;1.85;;;;;;;27.64;35.06;99957.05;1753833;80;21192;-59
2022/06/20 05:49:05;;;;;;;4.45;2.20;;;;;;;27.88;34.57;99963.14;1753809;80;21622;-59
2022/06/20 05:51:37;;;;;;;4.95;2.00;;;;;;;28.12;33.82;99958.56;1753996;81;21180;-58
2022/06/20 05:54:25;;;;;;;8.20;2.15;;;;;;;28.17;33.52;99960.39;1753762;82;21204;-60
2022/06/20 05:57:11;;;;;;;4.97;1.77;;;;;;;28.23;32.78;99959.95;1753782;82;21089;-58
2022/06/20 05:59:51;;;;;;;5.25;2.50;;;;;;;28.21;32.30;99941.69;1736579;82;21116;-59
2022/06/20 06:02:37;;;;;;;6.47;2.62;;;;;;;28.25;32.48;99938.50;1753617;80;21144;-60
2022/06/20 06:05:33;;;;;;;3.37;2.00;;;;;;;28.44;32.21;99926.36;1753798;81;21186;-58
2022/06/20 06:08:42;;;;;;;3.80;2.22;;;;;;;28.60;31.78;99920.50;1753752;82;22154;-58
2022/06/20 06:11:33;;;;;;;7.85;2.27;;;;;;;28.81;31.76;99908.61;1753540;81;21132;-59
2022/06/20 06:14:07;;;;;;;6.35;2.12;;;;;;;29.13;31.02;99896.84;1753905;80;21596;-59
2022/06/20 06:16:54;;;;;;;4.50;2.42;;;;;;;29.28;30.73;99900.59;1753728;82;21615;-59
2022/06/20 06:19:53;;;;;;;3.50;2.70;;;;;;;29.41;30.35;99897.91;1754015;80;21205;-60
2022/06/20 06:22:32;;;;;;;4.85;2.45;;;;;;;29.52;30.18;99879.47;1751570;82;21187;-60
2022/06/20 06:25:23;;;;;;;5.58;2.67;;;;;;;29.52;30.18;99879.47;1753759;82;21171;-58
2022/06/20 06:28:03;;;;;;;5.08;2.52;;;;;;;29.80;29.77;99872.80;1753763;80;21121;-58
2022/06/20 06:30:44;;;;;;;5.62;2.72;;;;;;;30.03;29.12;99868.60;1753936;80;21148;-59
2022/06/20 06:33:43;;;;;;;10.48;3.10;;;;;;;30.05;29.18;99863.44;1753873;80;21580;-59
2022/06/20 06:36:42;;;;;;;4.95;2.90;;;;;;;30.18;28.74;99861.53;1753930;81;21144;-57
2022/06/20 06:39:19;;;;;;;6.55;3.30;;;;;;;30.29;28.96;99864.20;1754346;82;21121;-59
2022/06/20 06:41:52;;;;;;;7.62;3.10;;;;;;;30.47;28.91;99866.33;1743805;81;21097;-60
2022/06/20 06:44:35;;;;;;;6.35;2.70;;;;;;;30.65;27.91;99861.43;1743831;81;21224;-59
2022/06/20 06:47:04;;;;;;;5.97;3.12;;;;;;;30.82;28.15;99864.11;1745170;81;21170;-59
2022/06/20 06:49:41;;;;;;;6.08;3.05;;;;;;;30.97;27.62;99866.30;1743638;81;21537;-58
2022/06/20 06:52:15;;;;;;;6.15;3.10;;;;;;;31.00;27.53;99861.95;1743767;81;21125;-59
2022/06/20 06:55:35;;;;;;;6.05;3.00;;;;;;;31.09;27.37;99845.71;1743659;81;21663;-60
2022/06/20 06:58:21;;;;;;;10.72;3.55;;;;;;;31.19;27.45;99845.30;1743873;81;21188;-60
2022/06/20 07:00:56;;;;;;;3.47;2.77;;;;;;;31.43;27.21;99854.48;1743692;81;21140;-60
2022/06/20 07:03:39;;;;;;;10.28;3.75;;;;;;;31.61;26.51;99849.44;1743872;81;21121;-58
2022/06/20 07:06:13;;;;;;;5.12;2.58;;;;;;;31.71;26.43;99848.42;1744050;81;21125;-59
2022/06/20 07:08:51;;;;;;;10.85;3.22;;;;;;;31.85;25.96;99848.07;1742441;82;21153;-62
2022/06/20 07:11:23;;;;;;;4.87;2.25;;;;;;;32.03;25.62;99851.53;1743591;81;21213;-60
2022/06/20 07:14:07;;;;;;;3.55;2.22;;;;;;;32.13;24.98;99843.38;1743623;82;21241;-60
2022/06/20 07:16:43;;;;;;;5.92;2.80;;;;;;;32.25;24.75;99845.39;1701755;84;21126;-58
2022/06/20 07:19:13;;;;;;;3.10;1.92;;;;;;;32.51;24.65;99828.56;1701797;84;21177;-59
2022/06/20 07:21:42;;;;;;;4.60;1.85;;;;;;;32.65;24.16;99841.20;1701651;83;21197;-58
2022/06/20 07:24:20;;;;;;;7.65;2.22;;;;;;;32.68;24.19;99850.41;1701706;84;21157;-59
2022/06/20 07:27:09;;;;;;;3.85;2.37;;;;;;;32.68;24.02;99851.00;1701882;83;21213;-60
2022/06/20 07:30:01;;;;;;;5.65;1.90;;;;;;;32.69;24.18;99840.72;1697445;84;21137;-59
2022/06/20 07:32:50;;;;;;;3.83;1.57;;;;;;;32.82;23.95;99840.70;1701564;84;21165;-59
2022/06/20 07:35:33;;;;;;;4.28;1.47;;;;;;;32.98;23.67;99840.98;1731728;81;21093;-58
2022/06/20 07:38:10;;;;;;;2.67;1.10;;;;;;;33.13;23.42;99838.55;1733410;82;21029;-59
2022/06/20 07:40:48;;;;;;;3.90;1.80;;;;;;;33.26;23.33;99835.91;1743649;81;21145;-58
2022/06/20 07:43:31;;;;;;;3.75;1.20;;;;;;;33.32;23.32;99827.38;1743664;81;21085;-59
2022/06/20 07:46:08;;;;;;;6.10;1.35;;;;;;;33.34;22.98;99835.77;1740794;81;21469;-59
2022/06/20 07:48:40;;;;;;;1.72;1.10;;;;;;;33.31;22.71;99835.67;1743511;82;21025;-61
2022/06/20 07:51:18;;;;;;;6.15;1.85;;;;;;;33.23;22.65;99828.94;1744054;81;21077;-60
2022/06/20 07:54:03;;;;;;;3.10;1.60;;;;;;;33.22;22.94;99832.14;1743668;82;21046;-59
2022/06/20 07:56:50;;;;;;;5.20;1.67;;;;;;;33.32;22.76;99837.33;1744015;82;21053;-60
2022/06/20 07:59:24;;;;;;;4.72;1.60;;;;;;;33.42;22.94;99826.02;1743889;82;21050;-57
2022/06/20 08:01:59;;;;;;;2.65;1.50;;;;;;;33.62;22.73;99831.44;1743866;81;21065;-59
2022/06/20 08:04:32;;;;;;;6.33;1.67;;;;;;;33.71;22.55;99827.81;1743778;81;21029;-59
2022/06/20 08:07:16;;;;;;;5.95;2.02;;;;;;;33.79;22.45;99813.19;1743668;81;21069;-61
2022/06/20 08:10:02;;;;;;;3.45;1.62;;;;;;;33.85;22.55;99818.06;1743729;81;21462;-60
2022/06/20 08:12:47;;;;;;;10.50;2.25;;;;;;;33.98;22.38;99815.34;1742308;81;21547;-58
2022/06/20 08:15:26;;;;;;;5.00;2.47;;;;;;;34.07;22.56;99813.13;1743916;81;21002;-59
2022/06/20 08:17:56;;;;;;;4.33;3.30;;;;;;;34.18;22.29;99815.62;1743636;81;21034;-60
2022/06/20 08:20:26;;;;;;;9.68;4.75;;;;;;;34.20;22.19;99805.30;1733353;82;21485;-57
2022/06/20 08:23:03;;;;;;;8.93;3.95;;;;;;;34.29;22.30;99821.55;1743502;81;21022;-59
2022/06/20 08:25:43;;;;;;;21.40;2.58;;;;;;;34.49;21.81;99826.73;1744019;81;21456;-57
2022/06/20 08:28:22;;;;;;;3.95;1.95;;;;;;;34.59;21.54;99828.40;1753740;79;21471;-59
2022/06/20 08:30:56;;;;;;;4.45;1.85;;;;;;;34.52;21.75;99814.02;1748676;81;21128;-61
2022/06/20 08:33:50;;;;;;;11.35;2.25;;;;;;;34.44;21.60;99806.48;1748052;81;21468;-58
2022/06/20 08:36:42;;;;;;;6.75;2.15;;;;;;;34.40;21.85;99799.07;1762171;81;21083;-60
2022/06/20 08:39:48;;;;;;;5.70;2.08;;;;;;;34.31;21.97;99808.61;1772208;81;21514;-60
2022/06/20 08:42:39;;;;;;;6.17;2.00;;;;;;;34.25;22.02;99806.42;1712986;83;21064;-59
2022/06/20 08:45:30;;;;;;;3.73;2.00;;;;;;;34.27;22.05;99810.55;1754529;80;21027;-61
2022/06/20 08:48:30;;;;;;;5.00;2.50;;;;;;;34.28;22.16;99811.37;1749914;82;21445;-58
2022/06/20 08:51:27;;;;;;;5.17;1.67;;;;;;;34.34;22.33;99816.43;1749346;81;21016;-59
2022/06/20 08:54:22;;;;;;;6.53;3.90;;;;;;;34.28;22.14;99807.11;1750110;81;21044;-59
2022/06/20 08:57:13;;;;;;;2.85;1.67;;;;;;;34.23;22.57;99790.33;1750111;82;21505;-60
2022/06/20 09:00:14;;;;;;;6.00;1.80;;;;;;;34.30;22.46;99792.73;1749215;80;21055;-59
2022/06/20 09:03:13;;;;;;;3.67;1.70;;;;;;;34.33;22.53;99789.18;1781348;80;21090;-59
2022/06/20 09:06:07;;;;;;;4.80;2.10;;;;;;;34.43;22.45;99796.30;1784596;80;21488;-62
2022/06/20 09:09:04;;;;;;;2.30;1.50;;;;;;;34.55;22.09;99786.23;1784780;80;21042;-62
2022/06/20 09:11:55;;;;;;;;;;;;;;;34.49;22.19;99785.48;1787123;80;21082;-61
2022/06/20 09:14:52;;;;;;;2.90;1.70;;;;;;;34.31;22.19;99776.49;1784298;80;20217;-59
2022/06/20 09:17:30;;;;;;;8.50;1.62;;;;;;;34.18;22.69;99782.09;1784942;80;21072;-60
2022/06/20 09:20:21;;;;;;;9.30;1.80;;;;;;;34.18;22.49;99770.71;1785436;80;21034;-61
2022/06/20 09:23:14;;;;;;;6.05;1.95;;;;;;;34.00;22.36;99768.88;1785623;80;21096;-59
2022/06/20 09:25:51;;;;;;;5.47;1.40;;;;;;;33.70;22.68;99762.23;1785574;80;21062;-60
2022/06/20 09:28:46;;;;;;;5.58;1.70;;;;;;;33.48;22.99;99760.05;1785594;80;21034;-59
2022/06/20 09:31:54;;;;;;;3.58;1.45;;;;;;;33.44;23.16;99759.73;1785549;80;21035;-58
2022/06/20 09:34:50;;;;;;;3.05;1.40;;;;;;;33.36;23.27;99757.30;1785608;80;21447;-58
2022/06/20 09:37:45;;;;;;;4.92;1.55;;;;;;;33.22;23.40;99759.73;1751632;81;21091;-60
2022/06/20 09:40:31;;;;;;;3.55;1.35;;;;;;;33.14;23.64;99765.78;1751726;82;21012;-59
2022/06/20 09:43:29;;;;;;;5.47;1.27;;;;;;;33.05;23.68;99765.13;1753657;82;21003;-56
2022/06/20 09:46:18;;;;;;;6.95;1.80;;;;;;;32.96;23.86;99769.56;1753613;81;21448;-58
2022/06/20 09:48:58;;;;;;;7.75;2.27;;;;;;;32.92;23.31;99766.39;1753604;82;21451;-59
2022/06/20 09:51:56;;;;;;;6.33;1.82;;;;;;;32.76;23.64;99760.64;1753930;80;20992;-58
2022/06/20 09:54:55;;;;;;;2.75;1.50;;;;;;;32.63;23.91;99759.05;1750121;81;21472;-57
2022/06/20 09:57:54;;;;;;;4.45;1.30;;;;;;;32.47;24.30;99759.80;1754051;81;20999;-60
2022/06/20 10:00:33;;;;;;;2.65;1.30;;;;;;;32.42;24.06;99764.89;1753785;81;21035;-58
2022/06/20 10:03:23;;;;;;;2.00;1.30;;;;;;;32.28;24.32;99753.12;1753736;82;21055;-59
2022/06/20 10:06:12;;;;;;;3.42;1.30;;;;;;;32.23;24.38;99751.92;1753680;81;21048;-59
2022/06/20 10:08:57;;;;;;;2.77;1.27;;;;;;;32.18;24.28;99764.93;1759091;81;21039;-60
2022/06/20 10:11:40;;;;;;;3.02;1.17;;;;;;;32.04;24.62;99745.48;1753870;80;21055;-58
2022/06/20 10:14:26;;;;;;;2.30;1.22;;;;;;;32.01;24.66;99742.77;1753855;82;21055;-58
2022/06/20 10:17:20;;;;;;;2.85;1.30;;;;;;;32.05;24.81;99731.53;1701476;84;21076;-59
2022/06/20 10:20:16;;;;;;;4.17;1.37;;;;;;;32.11;24.63;99717.34;1701676;84;21518;-58
2022/06/20 10:22:59;;;;;;;3.10;1.30;;;;;;;32.08;24.53;99713.22;1701748;84;21032;-60
2022/06/20 10:26:03;;;;;;;4.50;1.50;;;;;;;32.09;24.67;99713.45;1701607;84;21051;-56
2022/06/20 10:28:40;;;;;;;4.60;1.30;;;;;;;32.13;24.81;99712.14;1701692;84;21055;-56
2022/06/20 10:31:26;;;;;;;4.15;1.67;;;;;;;32.18;24.65;99711.06;1701213;84;21095;-59
2022/06/20 10:34:17;;;;;;;2.83;1.30;;;;;;;32.18;24.26;99704.80;1701468;84;21051;-59
2022/06/20 10:37:20;;;;;;;4.00;1.30;;;;;;;32.09;24.44;99698.45;1722345;83;21075;-60
2022/06/20 10:40:10;;;;;;;7.42;2.20;;;;;;;32.11;24.62;99703.17;1723407;83;21243;-59
2022/06/20 10:43:04;;;;;;;3.35;1.12;;;;;;;32.16;24.80;99717.09;1776877;80;21034;-57
2022/06/20 10:45:51;;;;;;;2.75;1.20;;;;;;;32.19;24.44;99711.30;1779833;79;21073;-59
2022/06/20 10:48:40;;;;;;;3.22;1.27;;;;;;;32.13;24.30;99706.48;1779497;80;20975;-60
2022/06/20 10:51:35;;;;;;;4.42;1.20;;;;;;;32.10;24.20;99690.19;1779574;79;21446;-60
2022/06/20 10:54:16;;;;;;;2.90;1.10;;;;;;;32.08;24.28;99696.22;1780010;79;21015;-59
2022/06/20 10:57:27;;;;;;;2.58;1.10;;;;;;;32.05;24.14;99694.09;1779785;80;20999;-59
2022/06/20 11:00:10;;;;;;;7.30;1.60;;;;;;;31.96;23.99;99699.08;1779736;80;21536;-58
2022/06/20 11:03:19;;;;;;;4.12;1.40;;;;;;;31.90;24.46;99687.77;1779712;80;21062;-58
2022/06/20 11:06:07;;;;;;;2.12;1.40;;;;;;;31.89;24.49;99688.13;1772808;80;21011;-58
2022/06/20 11:08:47;;;;;;;13.68;2.00;;;;;;;31.85;24.50;99671.80;1713632;83;21048;-59
2022/06/20 11:11:44;;;;;;;6.58;2.00;;;;;;;31.92;24.70;99680.32;1713776;84;21059;-57
2022/06/20 11:14:42;;;;;;;3.95;1.17;;;;;;;31.98;24.20;99666.95;1713504;84;21519;-58
2022/06/20 11:17:41;;;;;;;1.70;1.10;;;;;;;32.01;24.47;99662.58;1713536;83;21251;-60
2022/06/20 11:20:28;;;;;;;2.87;1.50;;;;;;;32.03;24.44;99652.53;1713561;84;21080;-58
2022/06/20 11:23:19;;;;;;;2.87;1.12;;;;;;;32.08;24.57;99658.54;1713573;84;21079;-59
2022/06/20 11:26:21;;;;;;;3.45;1.30;;;;;;;32.16;24.33;99644.22;1719838;80;21507;-60
2022/06/20 11:29:06;;;;;;;2.85;1.20;;;;;;;32.20;24.24;99649.98;1779972;80;20995;-58
2022/06/20 11:31:49;;;;;;;4.70;1.10;;;;;;;32.23;24.04;99655.53;1779784;80;21466;-60
2022/06/20 11:34:59;;;;;;;4.90;1.20;;;;;;;32.20;24.07;99656.25;1779941;80;21435;-58
2022/06/20 11:37:45;;;;;;;2.02;1.10;;;;;;;32.18;24.31;99650.12;1743864;82;21059;-58
2022/06/20 11:40:20;;;;;;;3.90;1.10;;;;;;;32.19;24.22;99651.77;1743987;82;21032;-57
2022/06/20 11:43:33;;;;;;;2.90;1.10;;;;;;;32.15;24.25;99647.41;1743639;81;21012;-59
2022/06/20 11:46:57;;;;;;;1.20;1.10;;;;;;;32.15;24.17;99646.00;1743877;82;21139;-59
2022/06/20 11:49:55;;;;;;;9.28;1.37;;;;;;;32.14;24.10;99626.75;1743768;82;21060;-58
2022/06/20 11:52:45;;;;;;;2.87;1.12;;;;;;;32.13;24.42;99633.59;1743281;81;21012;-62
2022/06/20 11:55:25;;;;;;;3.62;1.30;;;;;;;32.14;24.09;99625.92;1743676;82;20992;-61
2022/06/20 11:58:13;;;;;;;2.85;1.22;;;;;;;32.11;24.35;99627.47;1743716;82;21048;-61
2022/06/20 12:00:53;;;;;;;12.65;1.57;;;;;;;32.13;24.45;99621.44;1743839;82;21036;-60
2022/06/20 12:03:40;;;;;;;3.85;1.50;;;;;;;32.18;24.46;99620.35;1733525;82;21529;-63
2022/06/20 12:06:32;;;;;;;4.75;1.20;;;;;;;32.24;24.38;99621.17;1744003;81;21020;-64
2022/06/20 12:09:22;;;;;;;2.55;1.47;;;;;;;32.28;24.33;99619.86;1743668;81;21095;-64
2022/06/20 12:12:10;;;;;;;;;;;;;;;32.26;24.08;99609.48;1746608;82;21040;-65
2022/06/20 12:14:47;;;;;;;7.75;2.47;;;;;;;32.16;24.21;99598.86;1742788;82;20523;-64
2022/06/20 12:17:37;;;;;;;1.67;1.27;;;;;;;32.11;23.91;99608.22;1743081;81;21019;-64
2022/06/20 12:23:43;;;;;;;2.72;1.30;;;;;;;32.14;24.34;99594.14;1756343;81;21059;-67
2022/06/20 12:26:31;;;;;;;2.62;1.10;;;;;;;32.12;24.30;99590.84;1762380;79;21047;-65
2022/06/20 12:29:05;;;;;;;4.22;1.40;;;;;;;32.08;24.32;99582.84;1690028;84;21088;-66
2022/06/20 12:31:37;;;;;;;3.95;1.00;;;;;;;32.07;24.39;99581.19;1651723;86;21108;-64
2022/06/20 12:34:23;;;;;;;4.17;1.55;;;;;;;32.07;24.16;99581.78;1674535;84;21462;-66
2022/06/20 12:37:24;;;;;;;3.02;1.25;;;;;;;32.02;24.23;99576.38;1686284;83;21119;-62
2022/06/20 12:40:10;;;;;;;3.83;1.00;;;;;;;32.01;24.25;99571.89;1689219;84;22057;-62
2022/06/20 12:43:03;;;;;;;2.40;1.20;;;;;;;31.99;24.30;99567.17;1684744;84;21170;-61
2022/06/20 12:46:00;;;;;;;5.72;1.30;;;;;;;32.03;24.65;99561.02;1639770;86;21070;-63
2022/06/20 12:48:58;;;;;;;4.15;1.17;;;;;;;32.19;24.48;99565.30;1743657;82;21055;-61
2022/06/20 12:51:47;;;;;;;3.37;1.10;;;;;;;32.22;24.28;99551.82;1743812;82;21076;-62